createdAt,value
2023-02-05T00:02:13.745Z,7.20
2023-02-05T00:04:40.940Z,4.30
2023-02-05T00:07:08.408Z,4.67
2023-02-05T00:09:36.860Z,4.00
2023-02-05T00:12:04.093Z,3.80
2023-02-05T00:14:31.219Z,3.03
2023-02-05T00:16:58.745Z,5.07
2023-02-05T00:19:25.886Z,4.00
2023-02-05T00:21:53.019Z,4.60
2023-02-05T00:24:20.159Z,3.40
2023-02-05T00:26:47.294Z,4.30
2023-02-05T00:29:14.408Z,5.10
2023-02-05T00:31:41.718Z,4.80
2023-02-05T00:34:08.873Z,4.10
2023-02-05T00:36:35.981Z,4.40
2023-02-05T00:39:03.147Z,4.70
2023-02-05T00:41:30.292Z,4.67
2023-02-05T00:43:57.409Z,3.77
2023-02-05T00:46:24.597Z,5.03
2023-02-05T00:48:51.723Z,5.57
2023-02-05T00:51:18.865Z,4.57
2023-02-05T00:53:46.038Z,4.33
2023-02-05T00:56:13.223Z,4.40
2023-02-05T00:58:40.590Z,4.30
2023-02-05T01:01:07.764Z,3.53
2023-02-05T01:03:34.969Z,3.40
2023-02-05T01:06:03.389Z,5.53
2023-02-05T01:08:30.633Z,4.40
2023-02-05T01:10:57.799Z,4.20
2023-02-05T01:13:24.922Z,4.47
2023-02-05T01:15:52.081Z,4.00
2023-02-05T01:18:19.235Z,4.40
2023-02-05T01:20:46.354Z,3.37
2023-02-05T01:23:13.484Z,3.80
2023-02-05T01:25:40.597Z,6.63
2023-02-05T01:28:07.794Z,2.03
2023-02-05T01:30:35.463Z,2.87
2023-02-05T01:33:02.919Z,1.87
2023-02-05T01:35:30.049Z,2.07
2023-02-05T01:37:57.224Z,1.50
2023-02-05T01:40:24.331Z,1.67
2023-02-05T01:42:51.518Z,2.37
2023-02-05T01:45:32.642Z,2.23
2023-02-05T01:48:00.840Z,1.30
2023-02-05T01:50:30.995Z,5.60
2023-02-05T01:52:58.534Z,3.50
2023-02-05T01:55:25.639Z,3.10
2023-02-05T01:57:52.752Z,2.93
2023-02-05T02:00:19.993Z,1.63
2023-02-05T02:02:47.156Z,2.60
2023-02-05T02:05:15.722Z,1.97
2023-02-05T02:07:42.913Z,2.77
2023-02-05T02:10:10.445Z,2.50
2023-02-05T02:12:38.052Z,2.40
2023-02-05T02:15:10.383Z,1.83
2023-02-05T02:17:40.816Z,2.67
2023-02-05T02:20:09.281Z,2.27
2023-02-05T02:23:03.658Z,1.80
2023-02-05T02:25:39.844Z,2.00
2023-02-05T02:28:08.502Z,1.47
2023-02-05T02:30:38.390Z,2.07
2023-02-05T02:33:06.282Z,1.67
2023-02-05T02:35:47.513Z,1.90
2023-02-05T02:38:28.625Z,1.47
2023-02-05T02:40:56.553Z,1.80
2023-02-05T02:43:35.425Z,2.10
2023-02-05T02:46:06.565Z,1.60
2023-02-05T02:48:33.813Z,2.73
2023-02-05T02:51:01.312Z,2.00
2023-02-05T02:53:29.378Z,2.50
2023-02-05T02:55:56.618Z,6.87
2023-02-05T02:58:28.602Z,4.30
2023-02-05T03:00:55.847Z,5.13
2023-02-05T03:03:23.191Z,5.10
2023-02-05T03:05:50.355Z,6.70
2023-02-05T03:08:24.867Z,7.97
2023-02-05T03:10:54.537Z,6.30
2023-02-05T03:13:21.652Z,6.60
2023-02-05T03:15:48.873Z,6.23
2023-02-05T03:18:15.986Z,5.03
2023-02-05T03:20:45.318Z,5.77
2023-02-05T03:23:12.507Z,8.27
2023-02-05T03:25:39.678Z,9.27
2023-02-05T03:28:06.808Z,6.70
2023-02-05T03:30:45.868Z,7.67
2023-02-05T03:33:22.034Z,8.70
2023-02-05T03:35:53.647Z,7.80
2023-02-05T03:38:33.836Z,10.17
2023-02-05T03:41:04.988Z,12.07
2023-02-05T03:43:56.967Z,12.43
2023-02-05T03:46:24.110Z,10.87
2023-02-05T03:48:56.012Z,10.90
2023-02-05T03:51:23.532Z,11.17
2023-02-05T03:53:59.810Z,11.63
2023-02-05T03:56:29.229Z,8.17
2023-02-05T03:58:56.612Z,8.90
2023-02-05T04:01:23.755Z,10.60
2023-02-05T04:03:50.894Z,7.47
2023-02-05T04:06:18.090Z,8.77
2023-02-05T04:08:45.234Z,6.27
2023-02-05T04:11:12.356Z,7.50
2023-02-05T04:13:39.494Z,7.63
2023-02-05T04:16:06.665Z,5.23
2023-02-05T04:18:33.788Z,4.57
2023-02-05T04:21:01.698Z,4.30
2023-02-05T04:23:28.812Z,6.67
2023-02-05T04:25:56.072Z,6.17
2023-02-05T04:28:23.258Z,7.77
2023-02-05T04:30:50.445Z,5.90
2023-02-05T04:33:17.666Z,5.70
2023-02-05T04:35:44.793Z,4.77
2023-02-05T04:38:11.981Z,6.57
2023-02-05T04:40:39.099Z,6.40
2023-02-05T04:43:06.282Z,5.70
2023-02-05T04:45:33.783Z,5.60
2023-02-05T04:48:01.272Z,10.00
2023-02-05T04:50:28.523Z,9.50
2023-02-05T04:52:55.815Z,9.73
2023-02-05T04:55:23.086Z,8.30
2023-02-05T04:57:52.533Z,18.73
2023-02-05T05:00:20.104Z,17.63
2023-02-05T05:02:47.304Z,17.83
2023-02-05T05:05:14.465Z,20.73
2023-02-05T05:07:41.614Z,18.93
2023-02-05T05:10:09.004Z,26.63
2023-02-05T05:12:36.348Z,32.30
2023-02-05T05:15:04.116Z,29.20
2023-02-05T05:17:31.297Z,24.97
2023-02-05T05:19:58.448Z,20.63
2023-02-05T05:22:25.589Z,17.30
2023-02-05T05:24:52.732Z,17.60
2023-02-05T05:27:19.942Z,18.30
2023-02-05T05:29:47.078Z,17.77
2023-02-05T05:32:14.484Z,19.47
2023-02-05T05:34:41.597Z,18.57
2023-02-05T05:37:08.701Z,21.13
2023-02-05T05:39:54.671Z,20.77
2023-02-05T05:42:40.522Z,19.60
2023-02-05T05:45:07.822Z,20.23
2023-02-05T05:47:34.948Z,20.80
2023-02-05T05:50:02.139Z,24.83
2023-02-05T05:52:31.517Z,24.33
2023-02-05T05:54:59.530Z,26.50
2023-02-05T05:57:26.658Z,31.07
2023-02-05T05:59:54.319Z,34.47
2023-02-05T06:02:21.454Z,32.87
2023-02-05T06:04:48.730Z,33.10
2023-02-05T06:07:15.935Z,35.90
2023-02-05T06:09:43.087Z,34.40
2023-02-05T06:12:11.729Z,36.87
2023-02-05T06:14:39.035Z,38.30
2023-02-05T06:17:07.347Z,40.83
2023-02-05T06:19:34.464Z,40.43
2023-02-05T06:22:01.648Z,40.00
2023-02-05T06:24:30.931Z,40.17
2023-02-05T06:26:58.173Z,40.17
2023-02-05T06:29:25.402Z,40.13
2023-02-05T06:31:52.653Z,37.97
2023-02-05T06:34:19.863Z,28.67
2023-02-05T06:36:47.025Z,34.97
2023-02-05T06:39:14.136Z,35.60
2023-02-05T06:41:41.253Z,32.63
2023-02-05T06:44:08.523Z,22.33
2023-02-05T06:46:35.676Z,14.00
2023-02-05T06:49:02.826Z,11.17
2023-02-05T06:51:29.982Z,12.60
2023-02-05T06:53:57.484Z,8.47
2023-02-05T06:56:24.919Z,9.77
2023-02-05T06:58:52.229Z,8.50
2023-02-05T07:01:19.518Z,9.50
2023-02-05T07:03:48.498Z,8.23
2023-02-05T07:06:15.681Z,9.13
2023-02-05T07:08:43.015Z,10.50
2023-02-05T07:11:10.139Z,12.40
2023-02-05T07:13:37.288Z,15.60
2023-02-05T07:16:05.061Z,19.07
2023-02-05T07:18:33.094Z,20.47
2023-02-05T07:21:00.297Z,19.30
2023-02-05T07:23:27.432Z,22.53
2023-02-05T07:25:54.536Z,25.30
2023-02-05T07:28:21.688Z,19.77
2023-02-05T07:30:49.788Z,16.50
2023-02-05T07:33:17.404Z,15.50
2023-02-05T07:35:44.566Z,23.20
2023-02-05T07:38:11.736Z,24.57
2023-02-05T07:40:38.863Z,20.30
2023-02-05T07:43:06.024Z,20.53
2023-02-05T07:45:33.523Z,20.80
2023-02-05T07:48:00.891Z,20.00
2023-02-05T07:50:28.125Z,33.03
2023-02-05T07:52:55.413Z,25.73
2023-02-05T07:55:22.533Z,20.87
2023-02-05T07:57:49.720Z,18.07
2023-02-05T08:00:16.894Z,15.43
2023-02-05T08:02:44.144Z,14.10
2023-02-05T08:05:11.301Z,10.33
2023-02-05T08:07:38.798Z,11.10
2023-02-05T08:10:06.116Z,8.80
2023-02-05T08:12:33.268Z,7.67
2023-02-05T08:15:00.427Z,7.40
2023-02-05T08:17:27.578Z,6.63
2023-02-05T08:19:54.745Z,8.73
2023-02-05T08:22:21.868Z,12.13
2023-02-05T08:24:49.047Z,12.60
2023-02-05T08:27:16.203Z,13.60
2023-02-05T08:29:43.355Z,14.17
2023-02-05T08:32:10.496Z,16.37
2023-02-05T08:34:38.233Z,10.47
2023-02-05T08:37:05.431Z,12.77
2023-02-05T08:39:32.580Z,10.70
2023-02-05T08:41:59.751Z,6.10
2023-02-05T08:44:26.872Z,8.20
2023-02-05T08:46:53.992Z,8.47
2023-02-05T08:49:21.149Z,22.00
2023-02-05T08:51:48.446Z,14.23
2023-02-05T08:54:15.633Z,5.43
2023-02-05T08:56:43.267Z,6.40
2023-02-05T08:59:10.536Z,7.53
2023-02-05T09:01:38.167Z,8.97
2023-02-05T09:04:05.557Z,7.53
2023-02-05T09:06:32.673Z,5.47
2023-02-05T09:08:59.779Z,8.03
2023-02-05T09:11:27.109Z,6.63
2023-02-05T09:13:54.479Z,5.60
2023-02-05T09:16:21.652Z,6.40
2023-02-05T09:18:48.877Z,7.67
2023-02-05T09:21:16.119Z,7.90
2023-02-05T09:23:43.244Z,13.23
2023-02-05T09:26:10.419Z,13.80
2023-02-05T09:28:37.605Z,13.40
2023-02-05T09:31:12.089Z,11.50
2023-02-05T09:33:39.302Z,9.17
2023-02-05T09:36:09.919Z,6.07
2023-02-05T09:38:37.228Z,6.53
2023-02-05T09:41:06.392Z,8.03
2023-02-05T09:43:37.646Z,8.93
2023-02-05T09:46:23.617Z,15.20
2023-02-05T09:49:03.047Z,9.50
2023-02-05T09:51:34.557Z,6.70
2023-02-05T09:54:04.433Z,4.90
2023-02-05T09:56:31.959Z,4.57
2023-02-05T09:58:59.150Z,4.10
2023-02-05T10:01:32.686Z,4.10
2023-02-05T10:04:00.850Z,5.67
2023-02-05T10:06:46.589Z,7.73
2023-02-05T10:09:31.793Z,5.77
2023-02-05T10:12:17.446Z,11.63
2023-02-05T10:14:56.323Z,10.40
2023-02-05T10:17:42.291Z,11.53
2023-02-05T10:20:18.643Z,14.73
2023-02-05T10:23:05.538Z,9.23
2023-02-05T10:25:36.066Z,9.20
2023-02-05T10:28:03.304Z,9.67
2023-02-05T10:30:37.592Z,14.33
2023-02-05T10:33:20.456Z,19.90
2023-02-05T10:35:52.174Z,10.10
2023-02-05T10:38:26.222Z,10.77
2023-02-05T10:41:00.242Z,12.43
2023-02-05T10:43:34.143Z,6.00
2023-02-05T10:46:01.301Z,5.13
2023-02-05T10:48:31.814Z,8.60
2023-02-05T10:51:03.330Z,10.47
2023-02-05T10:53:30.635Z,7.30
2023-02-05T10:55:58.129Z,5.20
2023-02-05T10:58:25.258Z,5.20
2023-02-05T11:00:52.600Z,5.97
2023-02-05T11:03:19.718Z,6.40
2023-02-05T11:05:47.171Z,4.40
2023-02-05T11:08:33.578Z,6.10
2023-02-05T11:11:00.750Z,6.13
2023-02-05T11:13:28.173Z,11.67
2023-02-05T11:16:03.387Z,14.33
2023-02-05T11:18:31.412Z,6.80
2023-02-05T11:20:59.483Z,13.07
2023-02-05T11:23:27.193Z,7.70
2023-02-05T11:25:55.217Z,10.30
2023-02-05T11:28:31.941Z,7.17
2023-02-05T11:30:59.579Z,4.13
2023-02-05T11:33:27.946Z,4.47
2023-02-05T11:36:08.227Z,5.40
2023-02-05T11:38:44.558Z,10.57
2023-02-05T11:41:12.206Z,9.73
2023-02-05T11:43:39.306Z,9.63
2023-02-05T11:46:09.677Z,17.87
2023-02-05T11:48:54.994Z,16.97
2023-02-05T11:51:41.022Z,13.20
2023-02-05T11:54:32.397Z,11.87
2023-02-05T11:57:02.343Z,9.77
2023-02-05T11:59:29.584Z,11.20
2023-02-05T12:01:56.753Z,16.03
2023-02-05T12:04:23.913Z,12.37
2023-02-05T12:06:51.970Z,15.80
2023-02-05T12:09:22.929Z,77.07
2023-02-05T12:12:06.743Z,36.30
2023-02-05T12:14:33.995Z,17.70
2023-02-05T12:17:03.851Z,17.43
2023-02-05T12:19:42.996Z,17.47
2023-02-05T12:22:18.971Z,9.97
2023-02-05T12:24:47.785Z,12.50
2023-02-05T12:27:33.301Z,13.43
2023-02-05T12:30:19.004Z,13.73
2023-02-05T12:32:55.349Z,14.00
2023-02-05T12:35:22.487Z,14.67
2023-02-05T12:37:49.593Z,16.40
2023-02-05T12:40:35.750Z,14.00
2023-02-05T12:43:21.730Z,14.70
2023-02-05T12:46:07.734Z,14.67
2023-02-05T12:48:42.148Z,16.23
2023-02-05T12:51:29.006Z,15.97
2023-02-05T12:53:56.107Z,13.70
2023-02-05T12:56:36.665Z,14.47
2023-02-05T12:59:10.356Z,14.50
2023-02-05T13:01:41.325Z,24.07
2023-02-05T13:04:09.575Z,20.53
2023-02-05T13:06:43.952Z,15.40
2023-02-05T13:09:19.397Z,13.47
2023-02-05T13:11:57.560Z,12.93
2023-02-05T13:14:26.577Z,31.57
2023-02-05T13:16:55.347Z,63.30
2023-02-05T13:19:25.990Z,59.27
2023-02-05T13:22:11.785Z,47.37
2023-02-05T13:24:57.683Z,81.60
2023-02-05T13:27:48.106Z,18.40
2023-02-05T13:30:17.410Z,36.80
2023-02-05T13:32:44.754Z,50.13
2023-02-05T13:35:12.046Z,42.33
2023-02-05T13:37:52.816Z,99.20
2023-02-05T13:40:22.728Z,57.90
2023-02-05T13:42:57.553Z,31.07
2023-02-05T13:45:24.851Z,36.13
2023-02-05T13:48:00.857Z,29.83
2023-02-05T13:50:34.158Z,35.70
2023-02-05T13:53:01.809Z,33.13
2023-02-05T13:55:28.920Z,29.67
2023-02-05T13:58:11.141Z,44.83
2023-02-05T14:00:39.112Z,32.73
2023-02-05T14:03:08.492Z,33.80
2023-02-05T14:05:36.968Z,26.30
2023-02-05T14:08:04.173Z,34.87
2023-02-05T14:10:35.504Z,23.83
2023-02-05T14:13:34.206Z,28.03
2023-02-05T14:16:21.615Z,39.17
2023-02-05T14:18:49.692Z,25.43
2023-02-05T14:21:32.430Z,16.20
2023-02-05T14:24:00.199Z,16.87
2023-02-05T14:26:46.081Z,13.87
2023-02-05T14:29:31.981Z,8.47
2023-02-05T14:31:59.152Z,27.23
2023-02-05T14:34:36.390Z,21.83
2023-02-05T14:37:03.596Z,12.40
2023-02-05T14:39:33.413Z,10.20
2023-02-05T14:42:01.535Z,7.80
2023-02-05T14:44:34.792Z,6.80
2023-02-05T14:47:05.778Z,6.10
2023-02-05T14:49:37.832Z,5.53
2023-02-05T14:52:07.716Z,6.60
2023-02-05T14:54:37.140Z,6.37
2023-02-05T14:57:13.415Z,6.27
2023-02-05T14:59:44.713Z,6.30
2023-02-05T15:02:30.682Z,6.20
2023-02-05T15:04:57.814Z,7.43
2023-02-05T15:07:25.458Z,6.93
2023-02-05T15:10:02.283Z,7.67
2023-02-05T15:12:34.849Z,6.53
2023-02-05T15:15:01.955Z,6.37
2023-02-05T15:17:32.709Z,9.07
2023-02-05T15:20:04.554Z,16.20
2023-02-05T15:22:45.246Z,11.97
2023-02-05T15:25:29.435Z,9.53
2023-02-05T15:27:58.329Z,19.03
2023-02-05T15:30:26.414Z,17.93
2023-02-05T15:32:54.837Z,24.90
2023-02-05T15:35:26.130Z,23.77
2023-02-05T15:37:56.900Z,38.03
2023-02-05T15:40:25.464Z,46.63
2023-02-05T15:42:59.508Z,44.23
2023-02-05T15:45:27.636Z,119.13
2023-02-05T15:48:18.285Z,100.47
2023-02-05T15:51:05.557Z,105.17
2023-02-05T15:53:41.461Z,79.10
2023-02-05T15:56:16.436Z,69.00
2023-02-05T15:58:46.772Z,56.37
2023-02-05T16:01:22.349Z,51.80
2023-02-05T16:03:49.575Z,57.37
2023-02-05T16:06:20.610Z,57.40
2023-02-05T16:08:48.224Z,65.13
2023-02-05T16:11:26.083Z,85.93
2023-02-05T16:14:06.161Z,75.77
2023-02-05T16:16:33.566Z,85.40
2023-02-05T16:19:01.023Z,85.77
2023-02-05T16:21:31.238Z,86.87
2023-02-05T16:24:01.918Z,63.20
2023-02-05T16:26:32.112Z,51.57
2023-02-05T16:29:00.217Z,46.07
2023-02-05T16:31:27.439Z,43.87
2023-02-05T16:33:57.720Z,59.97
2023-02-05T16:36:25.904Z,71.60
2023-02-05T16:39:19.323Z,69.97
2023-02-05T16:41:48.702Z,62.00
2023-02-05T16:44:29.928Z,76.37
2023-02-05T16:47:07.052Z,61.10
2023-02-05T16:49:34.269Z,54.40
2023-02-05T16:52:01.389Z,43.10
2023-02-05T16:54:29.568Z,44.60
2023-02-05T16:56:58.823Z,44.10
2023-02-05T16:59:26.934Z,43.40
2023-02-05T17:01:54.106Z,43.97
2023-02-05T17:04:26.627Z,49.50
2023-02-05T17:06:57.458Z,50.10
2023-02-05T17:09:37.623Z,47.77
2023-02-05T17:12:23.151Z,49.87
2023-02-05T17:15:00.032Z,44.10
2023-02-05T17:17:27.467Z,45.43
2023-02-05T17:20:08.264Z,44.83
2023-02-05T17:22:35.398Z,41.27
2023-02-05T17:25:05.035Z,41.80
2023-02-05T17:27:32.976Z,45.33
2023-02-05T17:30:00.330Z,79.23
2023-02-05T17:32:27.579Z,58.37
2023-02-05T17:34:55.285Z,86.00
2023-02-05T17:37:22.455Z,63.10
2023-02-05T17:39:51.461Z,54.67
2023-02-05T17:42:22.365Z,55.77
2023-02-05T17:44:49.487Z,53.00
2023-02-05T17:47:16.625Z,53.77
2023-02-05T17:49:43.790Z,58.63
2023-02-05T17:52:10.931Z,54.03
2023-02-05T17:54:38.198Z,55.73
2023-02-05T17:57:18.621Z,61.83
2023-02-05T17:59:46.005Z,61.63
2023-02-05T18:02:13.414Z,62.27
2023-02-05T18:04:40.728Z,74.60
2023-02-05T18:07:10.929Z,74.07
2023-02-05T18:09:38.059Z,88.53
2023-02-05T18:12:06.011Z,102.03
2023-02-05T18:14:33.125Z,91.53
2023-02-05T18:17:00.249Z,60.57
2023-02-05T18:19:29.422Z,66.90
2023-02-05T18:21:56.544Z,81.20
2023-02-05T18:24:23.649Z,105.93
2023-02-05T18:26:52.698Z,107.47
2023-02-05T18:29:21.420Z,88.30
2023-02-05T18:31:48.906Z,72.33
2023-02-05T18:34:16.129Z,59.57
2023-02-05T18:36:43.271Z,68.47
2023-02-05T18:39:10.446Z,38.87
2023-02-05T18:41:38.888Z,34.03
2023-02-05T18:44:06.086Z,31.77
2023-02-05T18:46:34.883Z,32.93
2023-02-05T18:49:02.107Z,35.23
2023-02-05T18:51:29.281Z,37.10
2023-02-05T18:53:56.444Z,38.23
2023-02-05T18:56:25.812Z,38.60
2023-02-05T18:58:59.241Z,39.43
2023-02-05T19:01:26.754Z,40.20
2023-02-05T19:03:54.672Z,56.03
2023-02-05T19:06:22.021Z,43.73
2023-02-05T19:08:49.429Z,35.80
2023-02-05T19:11:18.604Z,37.63
2023-02-05T19:13:45.739Z,42.27
2023-02-05T19:16:14.245Z,45.90
2023-02-05T19:18:41.791Z,62.60
2023-02-05T19:21:13.272Z,67.80
2023-02-05T19:23:40.535Z,61.37
2023-02-05T19:26:20.356Z,57.23
2023-02-05T19:28:47.673Z,52.13
2023-02-05T19:31:15.647Z,49.87
2023-02-05T19:33:42.927Z,50.17
2023-02-05T19:36:10.444Z,47.00
2023-02-05T19:38:37.978Z,50.37
2023-02-05T19:41:12.620Z,51.87
2023-02-05T19:43:40.552Z,48.47
2023-02-05T19:46:08.247Z,49.40
2023-02-05T19:48:35.463Z,51.47
2023-02-05T19:51:06.251Z,51.57
2023-02-05T19:53:33.738Z,53.57
2023-02-05T19:56:07.876Z,52.70
2023-02-05T19:58:35.309Z,45.07
2023-02-05T20:01:02.408Z,55.87
2023-02-05T20:03:29.825Z,51.60
2023-02-05T20:06:00.968Z,53.00
2023-02-05T20:08:29.373Z,50.43
2023-02-05T20:10:59.976Z,50.73
2023-02-05T20:13:27.745Z,49.80
2023-02-05T20:15:55.010Z,47.33
2023-02-05T20:18:22.238Z,47.67
2023-02-05T20:20:49.557Z,53.50
2023-02-05T20:23:17.612Z,58.00
2023-02-05T20:25:44.756Z,55.63
2023-02-05T20:28:11.972Z,68.20
2023-02-05T20:31:08.016Z,66.80
2023-02-05T20:33:35.175Z,59.93
2023-02-05T20:36:09.157Z,57.23
2023-02-05T20:38:36.281Z,57.97
2023-02-05T20:41:16.468Z,67.60
2023-02-05T20:43:43.774Z,109.60
2023-02-05T20:46:11.024Z,119.07
2023-02-05T20:48:38.671Z,110.40
2023-02-05T20:51:06.761Z,108.07
2023-02-05T20:53:33.928Z,101.10
2023-02-05T20:56:02.035Z,96.93
2023-02-05T20:58:29.166Z,97.67
2023-02-05T21:00:56.465Z,91.97
2023-02-05T21:03:23.732Z,60.63
2023-02-05T21:05:50.912Z,55.27
2023-02-05T21:08:18.047Z,56.93
2023-02-05T21:10:45.191Z,62.80
2023-02-05T21:13:12.321Z,68.97
2023-02-05T21:15:39.444Z,67.60
2023-02-05T21:18:06.708Z,73.27
2023-02-05T21:20:34.093Z,83.13
2023-02-05T21:23:01.352Z,88.67
2023-02-05T21:25:28.576Z,69.60
2023-02-05T21:28:07.426Z,67.90
2023-02-05T21:30:35.115Z,77.37
2023-02-05T21:33:02.382Z,79.07
2023-02-05T21:35:29.742Z,72.00
2023-02-05T21:37:57.002Z,64.00
2023-02-05T21:40:24.161Z,66.37
2023-02-05T21:42:51.310Z,64.50
2023-02-05T21:45:18.472Z,66.77
2023-02-05T21:47:45.649Z,72.10
2023-02-05T21:50:12.824Z,82.37
2023-02-05T21:52:40.036Z,76.90
2023-02-05T21:55:07.381Z,80.33
2023-02-05T21:57:34.486Z,84.23
2023-02-05T22:00:04.136Z,71.33
2023-02-05T22:02:31.282Z,79.20
2023-02-05T22:04:58.392Z,69.53
2023-02-05T22:07:25.679Z,64.97
2023-02-05T22:09:52.793Z,59.20
2023-02-05T22:12:19.923Z,56.77
2023-02-05T22:14:48.122Z,61.40
2023-02-05T22:17:15.236Z,62.20
2023-02-05T22:19:43.202Z,69.40
2023-02-05T22:22:10.365Z,74.07
2023-02-05T22:24:37.536Z,86.00
2023-02-05T22:27:04.837Z,80.83
2023-02-05T22:29:32.013Z,75.37
2023-02-05T22:31:59.200Z,73.50
2023-02-05T22:34:26.353Z,72.57
2023-02-05T22:36:53.495Z,69.67
2023-02-05T22:39:20.605Z,64.00
2023-02-05T22:41:47.713Z,62.03
2023-02-05T22:44:14.859Z,65.90
2023-02-05T22:46:43.012Z,68.13
2023-02-05T22:49:10.700Z,73.90
2023-02-05T22:51:38.748Z,96.97
2023-02-05T22:54:06.054Z,97.10
2023-02-05T22:56:33.223Z,90.67
2023-02-05T22:59:03.045Z,84.27
2023-02-05T23:01:31.673Z,82.27
2023-02-05T23:03:59.037Z,80.07
2023-02-05T23:06:27.005Z,89.37
2023-02-05T23:08:54.121Z,89.70
2023-02-05T23:11:21.411Z,91.70
2023-02-05T23:13:48.712Z,86.60
2023-02-05T23:16:16.971Z,71.47
2023-02-05T23:18:44.186Z,74.30
2023-02-05T23:21:12.136Z,64.73
2023-02-05T23:23:39.268Z,74.30
2023-02-05T23:26:07.431Z,76.30
2023-02-05T23:28:34.597Z,77.13
2023-02-05T23:31:01.891Z,77.40
2023-02-05T23:33:29.206Z,80.63
2023-02-05T23:35:56.386Z,68.90
2023-02-05T23:38:25.121Z,62.00
2023-02-05T23:40:52.795Z,59.13
2023-02-05T23:43:20.015Z,60.17
2023-02-05T23:45:47.154Z,69.57
2023-02-05T23:48:14.280Z,69.83
2023-02-05T23:50:42.524Z,66.10
2023-02-05T23:53:09.818Z,59.80
2023-02-05T23:55:40.380Z,63.70
2023-02-05T23:58:07.655Z,58.53
